Time;durP1;ratioP1;P1;durP2;ratioP2;P2;SDS_P1;SDS_P2;PMS_P1;PMS_P2;Temp;Humidity;BMP_temperature;BMP_pressure;BME280_temperature;BME280_humidity;BME280_pressure;Samples;Min_cycle;Max_cycle;Signal;HPM_P1;HPM_P2
2022/07/25 00:02:00;;;;;;;7.47;6.50;;;26.60;56.90;;;-142.21;73.05;112049.66;5112928;28;20291;-73
2022/07/25 00:04:28;;;;;;;7.17;6.47;;;26.60;56.90;;;-142.21;72.99;112049.66;5113200;28;20295;-73
2022/07/25 00:06:55;;;;;;;7.50;6.00;;;26.60;57.10;;;-142.21;72.07;112049.66;5113004;28;20611;-73
2022/07/25 00:09:22;;;;;;;6.70;6.10;;;26.60;56.80;;;-142.21;72.49;112049.66;5113253;28;20336;-73
2022/07/25 00:11:50;;;;;;;7.13;6.43;;;26.60;56.90;;;-142.21;72.21;112049.66;5113557;28;20204;-74
2022/07/25 00:14:17;;;;;;;6.50;5.90;;;26.60;56.90;;;-142.21;72.64;112049.66;5095345;28;20238;-73
2022/07/25 00:16:44;;;;;;;7.20;6.50;;;26.60;56.80;;;-142.21;72.84;112049.66;5112948;28;20701;-73
2022/07/25 00:19:11;;;;;;;7.00;6.40;;;26.60;56.90;;;-142.21;73.81;112049.66;5112625;28;20199;-74
2022/07/25 00:21:39;;;;;;;7.10;6.47;;;26.60;57.20;;;-142.21;73.58;112049.66;5113445;28;20265;-74
2022/07/25 00:24:07;;;;;;;7.03;6.40;;;26.60;57.80;;;-142.21;73.95;112049.66;5111411;28;20204;-73
2022/07/25 00:26:34;;;;;;;6.60;5.90;;;26.60;57.30;;;-142.21;74.07;112049.66;5094484;28;20593;-73
2022/07/25 00:29:02;;;;;;;7.10;6.50;;;26.50;57.50;;;-142.21;73.97;112049.66;5112375;28;20203;-72
2022/07/25 00:31:29;;;;;;;7.60;6.63;;;26.50;57.40;;;-142.21;73.90;112049.66;5112897;28;20231;-73
2022/07/25 00:33:56;;;;;;;6.73;6.13;;;26.50;57.40;;;-142.21;74.40;112049.66;5112728;28;20202;-73
2022/07/25 00:36:26;;;;;;;6.87;6.20;;;26.50;57.60;;;-142.21;74.35;112049.66;5112593;28;20680;-73
2022/07/25 00:38:55;;;;;;;6.70;6.00;;;26.50;58.30;;;-142.21;74.65;112049.66;5112987;28;20275;-73
2022/07/25 00:41:22;;;;;;;7.27;6.63;;;26.50;57.80;;;-142.21;73.57;112049.66;5113074;28;20227;-73
2022/07/25 00:43:49;;;;;;;7.33;6.30;;;26.40;57.30;;;-142.21;73.41;112049.66;5112855;28;20202;-73
2022/07/25 00:46:17;;;;;;;7.20;6.53;;;26.50;57.30;;;-142.21;72.91;112049.66;5112629;28;20192;-72
2022/07/25 00:48:44;;;;;;;6.77;6.17;;;26.50;57.20;;;-142.21;73.84;112049.66;5113001;28;20563;-73
2022/07/25 00:51:12;;;;;;;7.30;6.60;;;26.40;57.30;;;-142.21;74.23;112049.66;5112740;28;20199;-73
2022/07/25 00:53:40;;;;;;;7.03;6.43;;;26.40;57.50;;;-142.21;73.53;112049.66;5111883;28;20290;-73
2022/07/25 00:56:09;;;;;;;7.00;6.20;;;26.30;58.00;;;-142.21;72.77;112049.66;5112369;28;20229;-73
2022/07/25 00:58:36;;;;;;;6.80;6.20;;;26.30;57.30;;;-142.21;72.31;112049.66;5112803;28;20287;-74
2022/07/25 01:01:04;;;;;;;7.50;6.80;;;26.30;57.20;;;-142.21;72.35;112049.66;5112420;28;20196;-73
2022/07/25 01:03:32;;;;;;;7.27;6.57;;;26.30;57.10;;;-142.21;73.13;112049.66;5112285;28;20206;-74
2022/07/25 01:05:59;;;;;;;7.20;6.50;;;26.40;57.20;;;-142.21;73.41;112049.66;5111683;28;20204;-73
2022/07/25 01:08:26;;;;;;;7.47;6.77;;;26.40;57.30;;;-142.21;73.43;112049.66;5112851;28;20196;-73
2022/07/25 01:10:54;;;;;;;7.13;6.50;;;26.30;58.00;;;-142.21;73.71;112049.66;5112901;28;20217;-74
2022/07/25 01:13:22;;;;;;;7.23;6.50;;;26.30;57.50;;;-142.21;74.68;112049.66;5094499;28;20196;-73
2022/07/25 01:15:49;;;;;;;7.10;6.33;;;26.30;57.70;;;-142.21;74.59;112049.66;5112639;28;20255;-72
2022/07/25 01:18:17;;;;;;;7.07;6.37;;;26.30;57.70;;;-142.21;74.08;112049.66;5111223;28;20206;-73
2022/07/25 01:20:46;;;;;;;7.37;6.67;;;26.30;57.70;;;-142.21;74.76;112049.66;5112505;28;20229;-74
2022/07/25 01:23:13;;;;;;;7.33;6.63;;;26.20;57.90;;;-142.21;75.18;112049.66;5112138;28;20604;-74
2022/07/25 01:25:40;;;;;;;7.27;6.57;;;26.10;57.90;;;-142.21;75.17;112049.66;5112103;28;20200;-74
2022/07/25 01:28:07;;;;;;;7.77;6.40;;;26.10;58.10;;;-142.21;75.44;112049.66;5111735;28;20235;-74
2022/07/25 01:30:34;;;;;;;6.90;6.20;;;26.10;58.10;;;-142.21;74.97;112049.66;5112292;28;20231;-74
2022/07/25 01:33:02;;;;;;;6.80;6.20;;;26.10;58.10;;;-142.21;75.04;112049.66;5111849;28;20527;-73
2022/07/25 01:35:29;;;;;;;7.40;6.70;;;26.00;58.00;;;-142.21;74.56;112049.66;5112135;28;20571;-73
2022/07/25 01:38:00;;;;;;;7.33;6.57;;;26.00;58.00;;;-142.21;74.18;112049.66;5112534;28;20256;-73
2022/07/25 01:40:28;;;;;;;7.83;7.13;;;26.00;58.00;;;-142.21;74.48;112049.66;5112672;28;20202;-73
2022/07/25 01:42:55;;;;;;;6.97;6.30;;;26.00;58.00;;;-142.21;74.06;112049.66;5112083;28;20286;-74
2022/07/25 01:45:22;;;;;;;6.87;6.27;;;25.90;57.90;;;-142.21;74.98;112049.66;5112310;28;20524;-73
2022/07/25 01:47:49;;;;;;;7.77;6.97;;;26.00;58.00;;;-142.21;75.48;112049.66;5111922;28;20287;-74
2022/07/25 01:50:16;;;;;;;7.97;7.17;;;26.00;58.00;;;-142.21;76.64;112049.66;5112069;28;20573;-74
2022/07/25 01:52:44;;;;;;;7.37;6.67;;;25.90;58.30;;;-142.21;77.14;112049.66;5112469;28;20282;-74
2022/07/25 01:55:12;;;;;;;7.17;6.57;;;25.90;58.60;;;-142.21;77.42;112049.66;5111616;28;20588;-73
2022/07/25 01:57:40;;;;;;;7.20;6.60;;;25.90;58.90;;;-142.21;77.72;112049.66;5111951;28;20220;-73
2022/07/25 02:00:12;;;;;;;7.20;6.50;;;25.80;59.00;;;-142.21;78.20;112049.66;5111329;28;20196;-74
2022/07/25 02:02:39;;;;;;;7.43;6.50;;;25.80;59.20;;;-142.21;78.28;112049.66;5112252;28;20192;-74
2022/07/25 02:05:08;;;;;;;8.37;7.13;;;25.70;59.20;;;-142.21;78.10;112049.66;5111231;28;20297;-74
2022/07/25 02:07:35;;;;;;;8.27;7.47;;;25.60;59.20;;;-142.21;78.66;112049.66;5112403;28;20328;-74
2022/07/25 02:10:05;;;;;;;7.53;6.83;;;25.60;59.40;;;-142.21;78.95;112049.66;5111804;28;20200;-74
2022/07/25 02:12:34;;;;;;;7.20;6.50;;;25.60;59.50;;;-142.21;79.45;112049.66;5112171;28;20199;-73
2022/07/25 02:15:01;;;;;;;8.07;6.63;;;25.50;59.60;;;-142.21;79.43;112049.66;5111545;28;20206;-73
2022/07/25 02:17:29;;;;;;;7.40;6.70;;;25.50;59.70;;;-142.21;79.40;112049.66;5114642;28;20664;-74
2022/07/25 02:19:56;;;;;;;8.00;7.20;;;25.50;59.80;;;-142.21;79.97;112049.66;5115724;28;20671;-73
2022/07/25 02:22:23;;;;;;;7.77;6.40;;;25.40;60.10;;;-142.21;80.19;112049.66;5114624;28;20228;-73
2022/07/25 02:24:50;;;;;;;7.37;6.70;;;25.30;60.10;;;-142.21;80.27;112049.66;5115407;28;20208;-73
2022/07/25 02:27:18;;;;;;;8.63;7.00;;;25.30;60.30;;;-142.21;80.04;112049.66;5115009;28;20203;-73
2022/07/25 02:29:46;;;;;;;7.93;7.13;;;25.30;60.30;;;-142.21;80.06;112049.66;5115525;28;20290;-73
2022/07/25 02:32:13;;;;;;;7.40;6.70;;;25.30;60.50;;;-142.21;80.86;112049.66;5114315;28;20630;-73
2022/07/25 02:34:40;;;;;;;7.67;6.97;;;25.20;60.40;;;-142.21;81.03;112049.66;5115099;28;20242;-74
2022/07/25 02:37:07;;;;;;;8.00;7.20;;;25.20;60.50;;;-142.21;80.98;112049.66;5114410;28;20219;-74
2022/07/25 02:39:34;;;;;;;7.57;6.83;;;25.10;60.50;;;-142.21;81.49;112049.66;5097147;28;20660;-73
2022/07/25 02:42:01;;;;;;;7.83;7.13;;;25.10;60.70;;;-142.21;81.62;112049.66;5114573;28;20202;-73
2022/07/25 02:44:28;;;;;;;7.80;7.00;;;25.10;60.90;;;-142.21;81.97;112049.66;5114411;28;20562;-73
2022/07/25 02:46:57;;;;;;;7.83;7.03;;;25.00;61.00;;;-142.21;82.08;112049.66;5114570;28;20196;-73
2022/07/25 02:49:26;;;;;;;7.70;7.00;;;25.00;61.10;;;-142.21;82.11;112049.66;5115023;28;20200;-73
2022/07/25 02:51:53;;;;;;;7.13;6.47;;;25.00;61.20;;;-142.21;81.85;112049.66;5114881;28;20202;-73
2022/07/25 02:54:20;;;;;;;7.80;7.10;;;24.90;60.90;;;-142.21;82.18;112049.66;5114049;28;20720;-73
2022/07/25 02:56:48;;;;;;;7.93;7.10;;;24.90;61.30;;;-142.21;81.97;112049.66;5115097;28;20541;-73
2022/07/25 02:59:15;;;;;;;7.97;7.20;;;24.90;61.20;;;-142.21;81.78;112049.66;5114590;28;20207;-73
2022/07/25 03:01:42;;;;;;;8.23;7.43;;;24.90;61.30;;;-142.21;82.08;112049.66;5097035;28;20660;-73
2022/07/25 03:04:10;;;;;;;7.23;6.53;;;24.90;61.30;;;-142.21;82.14;112049.66;5114074;28;20208;-73
2022/07/25 03:06:37;;;;;;;8.27;7.47;;;24.90;61.40;;;-142.21;82.56;112049.66;5114888;28;20207;-73
2022/07/25 03:09:05;;;;;;;7.97;7.17;;;24.90;61.60;;;-142.21;82.70;112049.66;5114525;28;20200;-73
2022/07/25 03:11:33;;;;;;;8.03;7.33;;;24.80;61.60;;;-142.21;83.40;112049.66;5114779;28;20292;-74
2022/07/25 03:14:01;;;;;;;7.90;7.20;;;24.70;61.70;;;-142.21;83.05;112049.66;5114252;28;20200;-74
2022/07/25 03:16:29;;;;;;;7.73;7.00;;;24.70;61.80;;;-142.21;83.23;112049.66;5114512;28;20283;-74
2022/07/25 03:18:56;;;;;;;7.83;7.00;;;24.70;61.80;;;-142.21;84.23;112049.66;5114945;28;20273;-74
2022/07/25 03:21:25;;;;;;;9.10;8.20;;;24.70;61.90;;;-142.21;84.44;112049.66;5113913;28;20255;-74
2022/07/25 03:23:52;;;;;;;8.13;7.33;;;24.60;62.20;;;-142.21;84.19;112049.66;5114484;28;20286;-74
2022/07/25 03:26:19;;;;;;;7.97;7.17;;;24.60;62.30;;;-142.21;84.42;112049.66;5114093;28;20199;-73
2022/07/25 03:28:46;;;;;;;7.70;7.00;;;24.50;62.50;;;-142.21;85.04;112049.66;5111862;28;20683;-74
2022/07/25 03:31:13;;;;;;;9.37;7.60;;;24.40;62.60;;;-142.21;85.22;112049.66;5113313;28;20238;-74
2022/07/25 03:33:40;;;;;;;9.77;8.47;;;24.40;63.10;;;-142.21;85.44;112049.66;5114045;28;20283;-74
2022/07/25 03:36:09;;;;;;;8.97;8.07;;;24.40;63.20;;;-142.21;85.62;112049.66;5113648;28;20283;-73
2022/07/25 03:38:38;;;;;;;10.50;7.43;;;24.30;63.30;;;-142.21;86.34;112049.66;5114022;28;20207;-73
2022/07/25 03:41:05;;;;;;;8.30;7.40;;;24.30;63.60;;;-142.21;86.08;112049.66;5111894;28;20218;-74
2022/07/25 03:43:32;;;;;;;8.07;7.27;;;24.30;63.40;;;-142.21;85.84;112049.66;5113586;28;20205;-74
2022/07/25 03:45:59;;;;;;;8.00;7.30;;;24.30;63.30;;;-142.21;85.76;112049.66;5113781;28;20231;-73
2022/07/25 03:48:26;;;;;;;8.87;7.97;;;24.30;63.70;;;-142.21;86.21;112049.66;5113360;28;20200;-73
2022/07/25 03:50:55;;;;;;;9.33;7.80;;;24.20;63.70;;;-142.21;86.59;112049.66;5114089;28;20294;-74
2022/07/25 03:53:23;;;;;;;8.33;7.10;;;24.20;63.70;;;-142.21;86.78;112049.66;5113313;28;20192;-73
2022/07/25 03:55:51;;;;;;;8.97;8.10;;;24.20;63.80;;;-142.21;86.76;112049.66;5114132;28;20207;-73
2022/07/25 03:58:18;;;;;;;8.33;7.53;;;24.10;63.70;;;-142.21;87.17;112049.66;5112929;28;20223;-73
2022/07/25 04:00:46;;;;;;;7.83;7.03;;;24.10;64.00;;;-142.21;87.30;112049.66;5113747;28;20305;-73
2022/07/25 04:03:13;;;;;;;8.67;7.77;;;24.20;64.10;;;-142.21;87.74;112049.66;5112911;28;20214;-74
2022/07/25 04:05:44;;;;;;;9.13;7.87;;;24.20;63.90;;;-142.21;87.93;112049.66;5113633;28;20206;-73
2022/07/25 04:08:11;;;;;;;8.40;7.60;;;24.20;63.90;;;-142.21;88.07;112049.66;5113329;28;20191;-73
2022/07/25 04:10:39;;;;;;;8.43;7.63;;;24.10;63.70;;;-142.21;87.95;112049.66;5113462;28;20202;-73
2022/07/25 04:13:08;;;;;;;8.43;7.63;;;24.10;64.10;;;-142.21;87.58;112049.66;5112111;28;20298;-73
2022/07/25 04:15:35;;;;;;;8.63;7.83;;;24.10;64.30;;;-142.21;88.25;112049.66;5114026;28;20207;-73
2022/07/25 04:18:02;;;;;;;14.90;8.30;;;24.10;64.70;;;-142.21;88.19;112049.66;5113472;28;20219;-73
2022/07/25 04:20:29;;;;;;;9.00;8.00;;;24.10;64.50;;;-142.21;88.18;112049.66;5112914;28;20226;-73
2022/07/25 04:22:56;;;;;;;9.07;8.17;;;24.10;64.60;;;-142.21;87.96;112049.66;5112360;28;20213;-73
2022/07/25 04:25:23;;;;;;;9.00;8.20;;;24.20;64.70;;;-142.21;87.46;112049.66;5112021;28;20561;-74
2022/07/25 04:27:51;;;;;;;8.47;7.67;;;24.10;64.40;;;-142.21;87.36;112049.66;5112676;28;20194;-73
2022/07/25 04:30:19;;;;;;;8.60;7.80;;;24.10;64.50;;;-142.21;87.19;112049.66;5112228;28;20254;-73
2022/07/25 04:32:46;;;;;;;8.27;7.47;;;24.10;64.50;;;-142.21;87.42;112049.66;5113287;28;20195;-73
2022/07/25 04:35:14;;;;;;;8.50;7.60;;;24.10;64.40;;;-142.21;87.98;112049.66;5112254;28;20199;-73
2022/07/25 04:37:41;;;;;;;9.53;7.73;;;24.10;65.40;;;-142.21;87.69;112049.66;5113267;28;20337;-74
2022/07/25 04:40:10;;;;;;;8.73;7.83;;;24.10;64.40;;;-142.21;88.00;112049.66;5111928;28;20298;-74
2022/07/25 04:42:37;;;;;;;9.43;8.07;;;24.10;64.50;;;-142.21;87.90;112049.66;5112746;28;20203;-74
2022/07/25 04:45:05;;;;;;;9.00;7.60;;;24.10;64.70;;;-142.21;87.73;112049.66;5112916;28;20548;-73
2022/07/25 04:47:34;;;;;;;8.47;7.53;;;24.10;64.50;;;-142.21;87.88;112049.66;5101989;28;20192;-73
2022/07/25 04:50:01;;;;;;;9.30;7.70;;;24.10;64.70;;;-142.21;87.83;112049.66;5112557;28;20202;-73
2022/07/25 04:52:28;;;;;;;11.23;8.10;;;24.10;64.70;;;-142.21;88.26;112049.66;5111756;28;20231;-73
2022/07/25 04:54:56;;;;;;;9.30;8.33;;;24.10;64.80;;;-142.21;88.05;112049.66;5112808;28;20282;-72
2022/07/25 04:57:23;;;;;;;8.10;7.30;;;24.10;64.90;;;-142.21;88.36;112049.66;5112166;28;20226;-73
2022/07/25 04:59:50;;;;;;;9.50;8.20;;;24.10;65.00;;;-142.21;88.22;112049.66;5112697;28;20695;-74
2022/07/25 05:02:17;;;;;;;10.30;8.10;;;24.10;65.10;;;-142.21;88.48;112049.66;5111194;28;20286;-73
2022/07/25 05:04:46;;;;;;;8.63;7.83;;;24.10;65.10;;;-142.21;88.14;112049.66;5112897;28;20222;-73
2022/07/25 05:07:13;;;;;;;9.37;8.47;;;24.20;65.40;;;-142.21;88.52;112049.66;5111865;28;20218;-73
2022/07/25 05:09:40;;;;;;;9.40;7.57;;;24.10;65.50;;;-142.21;88.72;112049.66;5112436;28;20712;-73
2022/07/25 05:12:08;;;;;;;9.03;8.17;;;24.20;65.40;;;-142.21;88.54;112049.66;5112064;28;20223;-73
2022/07/25 05:14:35;;;;;;;8.47;7.67;;;24.30;65.40;;;-142.21;87.96;112049.66;5112288;28;20199;-74
2022/07/25 05:17:02;;;;;;;8.80;7.90;;;24.40;65.40;;;-142.21;87.79;112049.66;5112089;28;20306;-73
2022/07/25 05:19:30;;;;;;;9.47;8.13;;;24.40;65.50;;;-142.21;87.32;112049.66;5110747;28;20200;-74
2022/07/25 05:21:59;;;;;;;8.90;8.00;;;24.40;65.50;;;-142.21;87.54;112049.66;5109887;28;20314;-73
2022/07/25 05:24:26;;;;;;;8.40;7.60;;;24.40;65.90;;;-142.21;87.79;112049.66;5122529;28;20290;-73
2022/07/25 05:26:53;;;;;;;10.57;8.80;;;24.40;65.80;;;-142.21;87.78;112049.66;5120560;28;20202;-73
2022/07/25 05:29:21;;;;;;;12.70;8.53;;;24.50;66.00;;;-142.21;87.90;112049.66;5101310;28;20306;-74
2022/07/25 05:31:48;;;;;;;14.17;8.97;;;24.50;66.20;;;-142.21;87.38;112049.66;5094116;28;20639;-73
2022/07/25 05:34:15;;;;;;;9.77;7.27;;;24.50;66.00;;;-142.21;87.58;112049.66;5111959;28;20215;-74
2022/07/25 05:36:42;;;;;;;9.63;7.83;;;24.60;66.10;;;-142.21;87.63;112049.66;5110677;28;20672;-73
2022/07/25 05:39:11;;;;;;;8.77;7.87;;;24.70;66.20;;;-142.21;87.55;112049.66;5094102;28;20598;-73
2022/07/25 05:41:38;;;;;;;8.87;8.07;;;24.80;66.30;;;-142.21;86.95;112049.66;5113446;28;20200;-77
2022/07/25 05:44:06;;;;;;;10.97;8.23;;;24.80;66.00;;;-142.21;86.00;112049.66;5120598;28;20206;-72
2022/07/25 05:46:34;;;;;;;8.47;7.33;;;25.00;65.70;;;-142.21;83.47;112049.66;5114518;28;20388;-72
2022/07/25 05:49:01;;;;;;;8.07;7.20;;;25.20;64.10;;;-142.21;82.81;112049.66;5128215;28;20722;-70
2022/07/25 05:51:28;;;;;;;8.63;7.17;;;25.30;63.40;;;-142.21;81.69;112049.66;5130304;27;20198;-72
2022/07/25 05:53:55;;;;;;;8.77;7.47;;;25.50;62.70;;;-142.21;79.22;112049.66;5119797;27;20214;-72
2022/07/25 05:56:24;;;;;;;8.43;7.53;;;25.70;61.70;;;-142.21;77.49;112049.66;5122441;27;20202;-71
2022/07/25 05:58:51;;;;;;;8.20;7.30;;;25.80;61.00;;;-142.21;77.35;112049.66;5115991;28;20216;-71
2022/07/25 06:01:19;;;;;;;8.60;6.67;;;26.00;60.80;;;-142.21;76.33;112049.66;5115433;28;20207;-73
2022/07/25 06:03:46;;;;;;;7.60;6.67;;;26.10;60.20;;;-142.21;74.61;112049.66;5097646;28;20208;-71
2022/07/25 06:06:13;;;;;;;9.57;7.27;;;26.30;59.50;;;-142.21;70.97;112049.66;5115128;28;20561;-72
2022/07/25 06:08:41;;;;;;;7.93;7.20;;;26.40;58.60;;;-142.21;68.67;112049.66;5114804;28;20291;-72
2022/07/25 06:11:08;;;;;;;7.40;6.80;;;26.40;58.20;;;-142.21;67.78;112049.66;5121998;27;20281;-74
2022/07/25 06:13:37;;;;;;;7.50;6.73;;;26.50;57.70;;;-142.21;67.64;112049.66;5116439;27;20287;-74
2022/07/25 06:16:04;;;;;;;8.17;6.37;;;26.60;57.60;;;-142.21;67.94;112049.66;5119311;27;20296;-73
2022/07/25 06:18:32;;;;;;;7.73;6.73;;;26.70;57.50;;;-142.21;67.29;112049.66;5115358;28;20315;-74
2022/07/25 06:20:59;;;;;;;7.67;6.40;;;26.90;57.20;;;-142.21;66.63;112049.66;5129326;27;20719;-74
2022/07/25 06:23:26;;;;;;;7.50;6.63;;;27.00;56.90;;;-142.21;65.77;112049.66;5123835;27;20279;-74
2022/07/25 06:25:53;;;;;;;8.83;6.70;;;27.10;56.60;;;-142.21;65.46;112049.66;5115439;28;20202;-74
2022/07/25 06:28:22;;;;;;;7.90;6.57;;;27.20;56.40;;;-142.21;64.02;112049.66;5115286;27;20200;-72
2022/07/25 06:30:55;;;;;;;7.60;6.80;;;27.30;56.00;;;-142.21;63.73;112049.66;5124370;27;20255;-74
2022/07/25 06:33:22;;;;;;;7.73;7.00;;;27.30;55.70;;;-142.21;63.19;112049.66;5135865;27;20191;-73
2022/07/25 06:35:49;;;;;;;6.97;6.27;;;27.40;55.60;;;-142.21;62.53;112049.66;5126556;27;20289;-74
2022/07/25 06:38:16;;;;;;;8.43;6.77;;;27.50;55.40;;;-142.21;62.39;112049.66;5062444;28;20224;-73
2022/07/25 06:40:43;;;;;;;7.20;6.50;;;27.70;55.30;;;-142.21;61.23;112049.66;5112890;27;20307;-74
2022/07/25 06:43:11;;;;;;;8.47;6.73;;;27.70;54.80;;;-142.21;60.27;112049.66;5116660;27;20197;-74
2022/07/25 06:45:38;;;;;;;6.83;6.17;;;27.70;54.50;;;-142.21;60.11;112049.66;5114820;27;20262;-74
2022/07/25 06:48:06;;;;;;;8.13;6.43;;;27.80;55.30;;;-142.21;59.83;112049.66;5115316;27;20557;-73
2022/07/25 06:50:34;;;;;;;7.43;6.30;;;27.90;54.40;;;-142.21;59.56;112049.66;5116603;27;20200;-73
2022/07/25 06:53:19;;;;;;;8.50;6.50;;;28.10;54.30;;;-142.21;59.38;112049.66;5115370;28;20275;-74
2022/07/25 06:55:46;;;;;;;7.80;6.70;;;28.20;53.80;;;-142.21;56.62;112049.66;5100911;28;20281;-74
2022/07/25 06:58:14;;;;;;;7.87;6.90;;;28.30;53.40;;;-142.21;55.41;112049.66;5111075;28;20246;-73
2022/07/25 07:00:42;;;;;;;7.33;6.63;;;28.40;53.10;;;-142.21;53.15;112049.66;5119508;27;20280;-75
2022/07/25 07:03:10;;;;;;;8.23;7.43;;;28.50;52.30;;;-142.21;52.38;112049.66;5133079;27;20256;-74
2022/07/25 07:05:40;;;;;;;9.03;7.33;;;28.50;52.30;;;-142.21;53.30;112049.66;5130895;27;20282;-73
2022/07/25 07:08:07;;;;;;;7.17;6.53;;;28.60;52.50;;;-142.21;52.21;112049.66;5115125;28;20224;-73
2022/07/25 07:10:34;;;;;;;7.33;6.63;;;28.60;52.20;;;-142.21;50.24;112049.66;5114138;28;20533;-73
2022/07/25 07:13:08;;;;;;;7.30;6.67;;;28.70;51.50;;;-142.21;50.31;112049.66;5116336;27;20225;-74
2022/07/25 07:15:36;;;;;;;7.07;6.10;;;28.70;51.50;;;-142.21;50.32;112049.66;5114120;28;20192;-74
2022/07/25 07:18:06;;;;;;;6.70;6.10;;;28.90;51.40;;;-142.21;50.08;112049.66;5114796;28;20280;-74
2022/07/25 07:20:35;;;;;;;6.70;6.10;;;29.00;51.40;;;-142.21;50.07;112049.66;5096682;28;20222;-73
2022/07/25 07:23:03;;;;;;;7.17;6.43;;;29.10;51.40;;;-142.21;50.42;112049.66;5114760;28;20203;-73
2022/07/25 07:25:30;;;;;;;7.40;6.80;;;29.20;51.30;;;-142.21;49.27;112049.66;5113886;28;20228;-73
2022/07/25 07:27:57;;;;;;;7.60;6.50;;;29.30;50.50;;;-142.21;48.88;112049.66;5114729;28;20198;-73
2022/07/25 07:30:25;;;;;;;9.00;6.80;;;29.40;50.50;;;-142.21;48.74;112049.66;5113609;28;20728;-73
2022/07/25 07:32:52;;;;;;;6.53;5.90;;;29.40;50.30;;;-142.21;49.73;112049.66;5114315;28;20205;-74
2022/07/25 07:35:20;;;;;;;6.77;6.17;;;29.50;50.70;;;-142.21;47.38;112049.66;5111553;28;20301;-75
2022/07/25 07:37:48;;;;;;;7.17;6.47;;;29.60;49.60;;;-142.21;48.15;112049.66;5114325;28;20259;-74
2022/07/25 07:40:16;;;;;;;7.73;7.03;;;29.80;50.30;;;-142.21;46.84;112049.66;5113994;28;20282;-73
2022/07/25 07:42:45;;;;;;;6.97;6.30;;;29.80;49.60;;;-142.21;48.10;112049.66;5114662;28;20200;-73
2022/07/25 07:45:15;;;;;;;6.83;6.23;;;29.90;50.10;;;-142.21;46.52;112049.66;5096191;28;20238;-73
2022/07/25 07:47:43;;;;;;;7.80;7.03;;;30.00;49.30;;;-142.21;45.72;112049.66;5114024;28;20279;-74
2022/07/25 07:50:11;;;;;;;7.00;6.40;;;30.00;49.00;;;-142.21;45.53;112049.66;5114010;28;20207;-72
2022/07/25 07:52:40;;;;;;;7.07;6.47;;;30.20;48.90;;;-142.21;45.64;112049.66;5113784;28;20604;-74
2022/07/25 07:57:59;;;;;;;7.27;6.57;;;30.30;48.50;;;-142.21;45.54;112049.66;5093977;28;20211;-72
2022/07/25 08:00:29;;;;;;;7.70;6.90;;;30.40;48.80;;;-142.21;45.01;112049.66;5093090;28;20295;-74
2022/07/25 08:02:58;;;;;;;6.77;6.17;;;30.50;48.50;;;-142.21;44.94;112049.66;5093609;28;20192;-74
2022/07/25 08:05:28;;;;;;;7.30;6.60;;;30.60;48.30;;;-142.21;43.55;112049.66;5092776;28;20203;-75
2022/07/25 08:07:56;;;;;;;7.23;6.53;;;30.70;47.80;;;-142.21;42.03;112049.66;5093510;28;20207;-75
2022/07/25 08:10:27;;;;;;;7.80;6.40;;;30.80;47.10;;;-142.21;42.03;112049.66;5093068;28;20300;-75
2022/07/25 08:12:54;;;;;;;6.93;6.30;;;30.80;47.10;;;-142.21;41.91;112049.66;5093718;28;20548;-74
2022/07/25 08:15:23;;;;;;;6.63;6.07;;;30.80;47.30;;;-142.21;42.07;112049.66;5092074;28;20211;-76
2022/07/25 08:17:52;;;;;;;8.83;6.70;;;30.90;47.30;;;-142.21;41.50;112049.66;5096094;28;20277;-74
2022/07/25 08:20:22;;;;;;;7.73;7.03;;;31.10;47.00;;;-142.21;41.12;112049.66;5113141;28;20211;-74
2022/07/25 08:22:51;;;;;;;7.30;6.60;;;31.20;47.20;;;-142.21;41.04;112049.66;5114165;28;20194;-74
2022/07/25 08:25:21;;;;;;;7.07;6.37;;;31.30;46.70;;;-142.21;41.25;112049.66;5114294;28;20290;-74
2022/07/25 08:27:52;;;;;;;7.00;6.40;;;31.40;47.10;;;-142.21;40.78;112049.66;5113975;28;20184;-74
2022/07/25 08:30:19;;;;;;;7.10;6.40;;;31.50;46.20;;;-142.21;40.06;112049.66;5112545;28;20308;-75
2022/07/25 08:32:49;;;;;;;7.70;6.90;;;31.60;45.80;;;-142.21;39.96;112049.66;5113155;28;20778;-74
2022/07/25 08:35:17;;;;;;;7.27;6.57;;;31.70;45.70;;;-142.21;39.92;112049.66;5113089;28;20232;-75
2022/07/25 08:37:44;;;;;;;7.17;6.57;;;31.80;45.30;;;-142.21;40.28;112049.66;5112892;28;20207;-76
2022/07/25 08:40:14;;;;;;;9.63;6.83;;;31.90;45.70;;;-142.21;40.13;112049.66;5093976;28;20573;-76
2022/07/25 08:42:41;;;;;;;7.13;6.50;;;31.90;45.40;;;-142.21;39.91;112049.66;5110760;28;20206;-76
2022/07/25 08:45:15;;;;;;;6.97;6.37;;;32.00;45.50;;;-142.21;39.10;112049.66;5113199;28;20295;-75
2022/07/25 08:47:42;;;;;;;7.53;6.83;;;32.20;44.50;;;-142.21;38.80;112049.66;5112585;28;20709;-76
2022/07/25 08:50:12;;;;;;;7.97;7.17;;;32.30;44.60;;;-142.21;38.87;112049.66;5111667;28;20300;-75
2022/07/25 08:52:40;;;;;;;7.47;6.77;;;32.30;44.70;;;-142.21;38.92;112049.66;5109841;28;20199;-75
2022/07/25 08:55:13;;;;;;;7.87;6.67;;;32.40;44.60;;;-142.21;39.14;112049.66;5113437;28;20524;-75
2022/07/25 08:57:42;;;;;;;7.23;6.60;;;32.50;44.70;;;-142.21;38.66;112049.66;5094295;28;20274;-75
2022/07/25 09:00:16;;;;;;;8.77;6.70;;;32.60;44.70;;;-142.21;38.46;112049.66;5111546;28;20207;-75
2022/07/25 09:02:43;;;;;;;6.73;6.13;;;32.80;44.30;;;-142.21;37.75;112049.66;5112276;28;20192;-74
2022/07/25 09:05:10;;;;;;;7.33;6.63;;;32.90;44.10;;;-142.21;37.81;112049.66;5113311;28;20237;-76
2022/07/25 09:07:40;;;;;;;7.73;7.03;;;32.90;43.90;;;-142.21;36.98;112049.66;5112378;28;20202;-75
2022/07/25 09:10:17;;;;;;;7.40;6.70;;;33.00;43.10;;;-142.21;36.15;112049.66;5112271;28;20221;-73
2022/07/25 09:12:53;;;;;;;7.77;6.97;;;33.10;42.70;;;-142.21;36.03;112049.66;5112586;28;20533;-74
2022/07/25 09:15:31;;;;;;;6.37;5.77;;;33.20;42.50;;;-142.21;36.13;112049.66;5113004;28;20189;-75
2022/07/25 09:18:01;;;;;;;6.60;6.00;;;33.30;42.50;;;-142.21;36.13;112049.66;5112555;28;20210;-74
2022/07/25 09:20:41;;;;;;;7.47;6.43;;;33.40;42.40;;;-142.21;35.03;112049.66;5111549;28;20238;-74
2022/07/25 09:23:09;;;;;;;7.43;6.83;;;33.60;41.00;;;-142.21;35.14;112049.66;5110825;28;20546;-76
2022/07/25 09:25:38;;;;;;;8.67;6.70;;;33.60;41.80;;;-142.21;35.72;112049.66;5114066;28;20289;-74
2022/07/25 09:28:14;;;;;;;6.83;6.33;;;33.70;41.90;;;-142.21;35.07;112049.66;5097684;28;20209;-75
2022/07/25 09:30:54;;;;;;;6.80;6.20;;;33.80;41.10;;;-142.21;34.90;112049.66;5116077;28;20241;-74
2022/07/25 09:33:24;;;;;;;8.53;6.80;;;33.80;40.80;;;-142.21;34.82;112049.66;5116896;28;20206;-74
2022/07/25 09:35:52;;;;;;;7.00;6.17;;;33.90;41.00;;;-142.21;34.03;112049.66;5113018;28;20230;-74
2022/07/25 09:38:21;;;;;;;6.83;6.20;;;34.00;40.30;;;-142.21;34.97;112049.66;5117623;27;20344;-75
2022/07/25 09:40:57;;;;;;;8.63;6.67;;;34.10;41.00;;;-142.21;34.71;112049.66;5115992;28;20678;-76
2022/07/25 09:43:36;;;;;;;7.67;6.93;;;34.10;40.80;;;-142.21;34.10;112049.66;5113896;28;20246;-77
2022/07/25 09:46:06;;;;;;;7.07;6.13;;;34.20;40.20;;;-142.21;33.80;112049.66;5108454;28;20199;-76
2022/07/25 09:48:35;;;;;;;7.10;6.00;;;34.30;40.20;;;-142.21;33.20;112049.66;5114148;28;20199;-74
2022/07/25 09:51:03;;;;;;;7.10;6.40;;;34.50;39.40;;;-142.21;33.37;112049.66;5115177;28;20287;-75
2022/07/25 09:53:30;;;;;;;7.07;6.37;;;34.50;39.30;;;-142.21;32.80;112049.66;5113878;28;20711;-73
2022/07/25 09:55:58;;;;;;;6.83;6.23;;;34.50;38.50;;;-142.21;32.68;112049.66;5115852;28;20264;-74
2022/07/25 09:58:26;;;;;;;6.30;5.80;;;34.50;38.70;;;-142.21;32.69;112049.66;5114770;28;20227;-74
2022/07/25 10:01:04;;;;;;;6.60;6.00;;;34.60;38.50;;;-142.21;32.70;112049.66;5114642;28;20261;-73
2022/07/25 10:03:52;;;;;;;6.70;6.07;;;34.70;38.80;;;-142.21;32.31;112049.66;5100421;28;20286;-73
2022/07/25 10:06:29;;;;;;;6.63;5.87;;;34.80;37.40;;;-142.21;31.28;112049.66;5114467;28;20777;-74
2022/07/25 10:08:57;;;;;;;6.43;5.83;;;34.90;37.10;;;-142.21;31.76;112049.66;5114792;28;20196;-75